»·PEaware :: UAL1672 KDEN-KJAC

UAL1672 :: KDEN-KJAC

FLIGHT INFORMATION

Flight Status: Arrived
Operator:
United Airlines
More flights by this operator :: More flights under this callsign
Pilot: Chuck O. (4337)
Aircraft: BOEING 737-700
(B737)
More flights by this aircraft type
Origin: KDEN Denver Intl
United States
Destination: KJAC Jackson Hole
United States
More flights between these airports :: More routes between these airports
Route: +YAMMI3 LAR DNW V33O DNW
File this flight plan on PilotEdge
Remarks: YAMMI3
Altitude:
(Current/Filed)
380ft
Speed:
(Current/Filed)
443kts
Departed: 29-Apr-18 11:51 AM
Arrived: 29-Apr-18 12:55 PM
Distance/Time
Traveled:
353nm/1:04
Distance/Time
To Go:
Arrived

Flight Plot

Page will automatically refresh every two minutes.

Flight plan parsing failed; only flown route is shown


Map Options




Map Legend


Flown Route
Filed Route
Departure Airport
Arrival Airport
Navaid (VOR, NDB)
Fix

Horizontal Profiles

Position Reports

Time Latitude Longitude Heading Altitude Ground
Speed
29-Apr-18 11:26 39.859382 -104.671385 180 5439ft 0kts
29-Apr-18 11:27 39.859382 -104.671385 180 5439ft 0kts
29-Apr-18 11:28 39.859382 -104.671385 180 5439ft 0kts
29-Apr-18 11:29 39.859382 -104.671385 180 5439ft 0kts
29-Apr-18 11:30 39.859382 -104.671385 180 5439ft 0kts
29-Apr-18 11:31 39.859382 -104.671385 180 5439ft 0kts
29-Apr-18 11:32 39.859382 -104.671385 180 5439ft 0kts
29-Apr-18 11:33 39.859382 -104.671385 180 5439ft 0kts
29-Apr-18 11:34 39.859382 -104.671385 180 5439ft 0kts
29-Apr-18 11:35 39.859382 -104.671385 180 5439ft 0kts
29-Apr-18 11:36 39.859685 -104.671402 170 5439ft 2kts
29-Apr-18 11:37 39.860054 -104.671823 90 5439ft 0kts
29-Apr-18 11:39 39.860054 -104.671823 90 5439ft 0kts
29-Apr-18 11:40 39.860054 -104.671823 90 5439ft 0kts
29-Apr-18 11:41 39.860054 -104.671823 90 5439ft 0kts
29-Apr-18 11:42 39.860054 -104.671823 90 5439ft 0kts
29-Apr-18 11:42 39.860054 -104.671823 90 5439ft 0kts
29-Apr-18 11:43 39.860054 -104.671823 90 5439ft 0kts
29-Apr-18 11:44 39.860054 -104.671823 90 5439ft 0kts
29-Apr-18 11:45 39.860291 -104.669340 46 5439ft 10kts
29-Apr-18 11:46 39.860190 -104.664440 92 5439ft 16kts
29-Apr-18 11:47 39.861071 -104.661875 79 5439ft 0kts
29-Apr-18 11:48 39.861071 -104.661875 79 5439ft 0kts
29-Apr-18 11:50 39.860456 -104.660161 177 5438ft 4kts
29-Apr-18 11:50 39.842606 -104.660381 180 5439ft 163kts
29-Apr-18 11:51 39.795575 -104.643674 130 7831ft 197kts
29-Apr-18 11:52 39.771581 -104.568627 83 9673ft 274kts
29-Apr-18 11:53 39.793570 -104.466301 73 10030ft 349kts
29-Apr-18 11:54 39.859649 -104.382493 5 11166ft 359kts
29-Apr-18 11:55 39.960797 -104.383245 4 14498ft 377kts
29-Apr-18 11:56 40.066372 -104.392661 332 17755ft 386kts
29-Apr-18 11:57 40.154778 -104.472981 318 20775ft 395kts
29-Apr-18 11:58 40.246078 -104.558839 319 22792ft 410kts
29-Apr-18 11:59 40.338225 -104.645668 317 22808ft 407kts
29-Apr-18 12:00 40.428819 -104.735109 317 22806ft 408kts
29-Apr-18 12:01 40.519780 -104.825195 317 22796ft 409kts
29-Apr-18 12:02 40.612585 -104.914078 318 24191ft 417kts
29-Apr-18 12:03 40.708151 -105.005074 316 26299ft 429kts
29-Apr-18 12:04 40.800564 -105.108102 313 28170ft 439kts
29-Apr-18 12:05 40.894505 -105.214479 313 29756ft 450kts
29-Apr-18 12:06 40.991023 -105.324252 313 31075ft 462kts
29-Apr-18 12:07 41.088223 -105.434665 314 32730ft 461kts
29-Apr-18 12:08 41.185541 -105.545483 313 34239ft 461kts
29-Apr-18 12:09 41.282497 -105.657063 313 35665ft 460kts
29-Apr-18 12:10 41.371385 -105.777953 301 35868ft 452kts
29-Apr-18 12:11 41.447771 -105.910535 301 35867ft 452kts
29-Apr-18 12:12 41.524390 -106.044046 300 35859ft 451kts
29-Apr-18 12:13 41.599376 -106.174124 300 36980ft 448kts
29-Apr-18 12:14 41.676166 -106.307913 300 37832ft 451kts
29-Apr-18 12:15 41.751799 -106.440527 300 37839ft 445kts
29-Apr-18 12:16 41.826742 -106.572590 300 37840ft 446kts
29-Apr-18 12:17 41.901825 -106.705515 300 37841ft 445kts
29-Apr-18 12:18 41.976438 -106.838197 300 37831ft 446kts
29-Apr-18 12:19 42.051131 -106.971609 300 37828ft 451kts
29-Apr-18 12:20 42.126652 -107.107107 300 37830ft 451kts
29-Apr-18 12:21 42.201787 -107.242516 300 37820ft 451kts
29-Apr-18 12:22 42.277015 -107.378710 300 37805ft 452kts
29-Apr-18 12:23 42.351735 -107.514587 300 37793ft 451kts
29-Apr-18 12:24 42.426349 -107.650902 300 37781ft 451kts
29-Apr-18 12:25 42.501032 -107.787959 300 37770ft 451kts
29-Apr-18 12:26 42.575340 -107.924953 300 37758ft 452kts
29-Apr-18 12:27 42.649862 -108.062976 299 37739ft 452kts
29-Apr-18 12:28 42.724012 -108.200944 299 37725ft 453kts
29-Apr-18 12:29 42.798204 -108.339641 299 37680ft 455kts
29-Apr-18 12:30 42.872599 -108.479349 299 36677ft 455kts
29-Apr-18 12:31 42.946397 -108.618598 299 35684ft 457kts
29-Apr-18 12:32 43.020809 -108.759672 299 34687ft 459kts
29-Apr-18 12:33 43.095655 -108.902248 299 33686ft 461kts
29-Apr-18 12:34 43.170089 -109.044730 299 32687ft 457kts
29-Apr-18 12:35 43.242430 -109.183869 299 30674ft 438kts
29-Apr-18 12:36 43.311794 -109.317881 300 28587ft 425kts
29-Apr-18 12:37 43.379400 -109.449081 300 26484ft 417kts
29-Apr-18 12:38 43.445184 -109.577311 300 25476ft 411kts
29-Apr-18 12:39 43.510509 -109.705198 300 24283ft 405kts
29-Apr-18 12:40 43.574746 -109.831510 300 22206ft 401kts
29-Apr-18 12:41 43.636591 -109.953632 299 20236ft 371kts
29-Apr-18 12:42 43.695627 -110.070010 299 18268ft 372kts
29-Apr-18 12:43 43.754031 -110.186555 300 16205ft 357kts
29-Apr-18 12:44 43.807209 -110.293128 300 15204ft 307kts
29-Apr-18 12:45 43.825481 -110.391254 259 14992ft 232kts
29-Apr-18 12:46 43.819666 -110.460630 259 14417ft 199kts
29-Apr-18 12:47 43.812424 -110.537439 248 12497ft 192kts
29-Apr-18 12:48 43.790555 -110.601346 242 10709ft 166kts
29-Apr-18 12:49 43.763522 -110.642951 219 9817ft 141kts
29-Apr-18 12:50 43.731345 -110.673065 205 9240ft 144kts
29-Apr-18 12:51 43.694986 -110.694438 203 8124ft 144kts
29-Apr-18 12:52 43.656552 -110.713756 198 7342ft 150kts
29-Apr-18 12:53 43.617377 -110.732968 196 6533ft 146kts
29-Apr-18 12:54 43.603798 -110.738353 108 6459ft 5kts
29-Apr-18 12:55 43.603764 -110.738201 108 6459ft 0kts
29-Apr-18 12:56 43.604344 -110.737034 105 6459ft 2kts
29-Apr-18 12:57 43.604256 -110.736672 108 6459ft 0kts
29-Apr-18 12:58 43.604256 -110.736672 108 6459ft 0kts
29-Apr-18 12:59 43.604253 -110.736675 109 6459ft 0kts
29-Apr-18 13:00 43.604253 -110.736675 109 6459ft 0kts

Navigation Log

Ident Type
Flight plan parsing failed, navigation log unavailable